sensor_id;sensor_type;location;lat;lon;timestamp;pressure;altitude;pressure_sealevel;temperature;humidity
76594;BME280;65482;50.240;14.302;2023-08-01T00:01:30;98610.22;;;20.48;60.27
76594;BME280;65482;50.240;14.302;2023-08-01T00:03:56;98613.13;;;20.46;59.99
76594;BME280;65482;50.240;14.302;2023-08-01T00:06:22;98606.34;;;20.38;60.29
76594;BME280;65482;50.240;14.302;2023-08-01T00:08:49;98597.50;;;20.38;60.27
76594;BME280;65482;50.240;14.302;2023-08-01T00:11:15;98593.69;;;20.34;60.61
76594;BME280;65482;50.240;14.302;2023-08-01T00:13:41;98585.09;;;20.32;60.33
76594;BME280;65482;50.240;14.302;2023-08-01T00:16:09;98581.28;;;20.27;60.51
76594;BME280;65482;50.240;14.302;2023-08-01T00:18:35;98579.91;;;20.25;60.65
76594;BME280;65482;50.240;14.302;2023-08-01T00:21:01;98569.50;;;20.29;60.76
76594;BME280;65482;50.240;14.302;2023-08-01T00:23:27;98562.84;;;20.31;60.91
76594;BME280;65482;50.240;14.302;2023-08-01T00:25:52;98547.53;;;20.26;60.92
76594;BME280;65482;50.240;14.302;2023-08-01T00:28:18;98548.31;;;20.27;59.99
76594;BME280;65482;50.240;14.302;2023-08-01T00:30:45;98542.69;;;20.23;60.17
76594;BME280;65482;50.240;14.302;2023-08-01T00:33:11;98547.19;;;20.23;59.74
76594;BME280;65482;50.240;14.302;2023-08-01T00:35:37;98544.28;;;20.24;60.34
76594;BME280;65482;50.240;14.302;2023-08-01T00:38:03;98537.63;;;20.27;60.90
76594;BME280;65482;50.240;14.302;2023-08-01T00:40:32;98538.44;;;20.27;60.67
76594;BME280;65482;50.240;14.302;2023-08-01T00:42:58;98542.16;;;20.26;60.60
76594;BME280;65482;50.240;14.302;2023-08-01T00:45:26;98534.13;;;20.26;60.49
76594;BME280;65482;50.240;14.302;2023-08-01T00:47:53;98525.31;;;20.26;60.29
76594;BME280;65482;50.240;14.302;2023-08-01T00:50:19;98520.44;;;20.23;60.66
76594;BME280;65482;50.240;14.302;2023-08-01T00:52:50;98516.72;;;20.24;60.21
76594;BME280;65482;50.240;14.302;2023-08-01T00:55:17;98514.84;;;20.24;60.01
76594;BME280;65482;50.240;14.302;2023-08-01T00:57:43;98500.88;;;20.22;60.26
76594;BME280;65482;50.240;14.302;2023-08-01T01:00:10;98517.50;;;20.24;60.44
76594;BME280;65482;50.240;14.302;2023-08-01T01:02:36;98508.34;;;20.20;60.43
76594;BME280;65482;50.240;14.302;2023-08-01T01:05:03;98505.34;;;20.17;60.58
76594;BME280;65482;50.240;14.302;2023-08-01T01:07:29;98507.00;;;20.18;60.89
76594;BME280;65482;50.240;14.302;2023-08-01T01:09:58;98505.88;;;20.14;60.89
76594;BME280;65482;50.240;14.302;2023-08-01T01:12:23;98503.47;;;20.17;60.37
76594;BME280;65482;50.240;14.302;2023-08-01T01:14:49;98501.63;;;20.18;60.36
76594;BME280;65482;50.240;14.302;2023-08-01T01:17:14;98493.09;;;20.21;60.27
76594;BME280;65482;50.240;14.302;2023-08-01T01:19:40;98487.75;;;20.21;60.22
76594;BME280;65482;50.240;14.302;2023-08-01T01:22:07;98492.84;;;20.22;60.35
76594;BME280;65482;50.240;14.302;2023-08-01T01:24:35;98484.81;;;20.22;60.32
76594;BME280;65482;50.240;14.302;2023-08-01T01:27:03;98482.22;;;20.27;60.60
76594;BME280;65482;50.240;14.302;2023-08-01T01:29:31;98473.91;;;20.29;60.76
76594;BME280;65482;50.240;14.302;2023-08-01T01:31:59;98461.84;;;20.26;60.57
76594;BME280;65482;50.240;14.302;2023-08-01T01:34:27;98461.03;;;20.26;60.39
76594;BME280;65482;50.240;14.302;2023-08-01T01:36:53;98471.75;;;20.26;60.38
76594;BME280;65482;50.240;14.302;2023-08-01T01:39:20;98462.91;;;20.25;60.16
76594;BME280;65482;50.240;14.302;2023-08-01T01:41:47;98456.72;;;20.25;60.78
76594;BME280;65482;50.240;14.302;2023-08-01T01:44:12;98458.59;;;20.24;60.26
76594;BME280;65482;50.240;14.302;2023-08-01T01:46:38;98445.47;;;20.23;60.07
76594;BME280;65482;50.240;14.302;2023-08-01T01:49:04;98436.38;;;20.24;59.90
76594;BME280;65482;50.240;14.302;2023-08-01T01:51:31;98431.59;;;20.26;59.46
76594;BME280;65482;50.240;14.302;2023-08-01T01:53:57;98432.38;;;20.26;59.59
76594;BME280;65482;50.240;14.302;2023-08-01T01:56:23;98428.41;;;20.29;59.65
76594;BME280;65482;50.240;14.302;2023-08-01T01:58:48;98416.41;;;20.32;59.81
76594;BME280;65482;50.240;14.302;2023-08-01T02:01:14;98413.88;;;20.25;59.14
76594;BME280;65482;50.240;14.302;2023-08-01T02:03:40;98406.69;;;20.25;59.52
76594;BME280;65482;50.240;14.302;2023-08-01T02:06:05;98401.03;;;20.22;59.83
76594;BME280;65482;50.240;14.302;2023-08-01T02:08:31;98401.25;;;20.20;59.02
76594;BME280;65482;50.240;14.302;2023-08-01T02:10:57;98400.47;;;20.20;59.43
76594;BME280;65482;50.240;14.302;2023-08-01T02:13:28;98409.59;;;20.24;59.71
76594;BME280;65482;50.240;14.302;2023-08-01T02:15:54;98405.00;;;20.19;59.96
76594;BME280;65482;50.240;14.302;2023-08-01T02:18:20;98408.25;;;20.21;59.98
76594;BME280;65482;50.240;14.302;2023-08-01T02:20:45;98413.28;;;20.18;60.77
76594;BME280;65482;50.240;14.302;2023-08-01T02:23:11;98411.16;;;20.20;60.69
76594;BME280;65482;50.240;14.302;2023-08-01T02:25:40;98417.09;;;20.22;60.69
76594;BME280;65482;50.240;14.302;2023-08-01T02:28:07;98402.34;;;20.19;60.63
76594;BME280;65482;50.240;14.302;2023-08-01T02:30:33;98406.31;;;20.17;61.45
76594;BME280;65482;50.240;14.302;2023-08-01T02:32:59;98385.69;;;20.17;61.38
76594;BME280;65482;50.240;14.302;2023-08-01T02:35:25;98391.56;;;20.14;61.59
76594;BME280;65482;50.240;14.302;2023-08-01T02:37:51;98388.63;;;20.16;61.65
76594;BME280;65482;50.240;14.302;2023-08-01T02:40:16;98382.97;;;20.12;61.68
76594;BME280;65482;50.240;14.302;2023-08-01T02:42:42;98377.75;;;20.00;62.44
76594;BME280;65482;50.240;14.302;2023-08-01T02:45:08;98380.91;;;19.97;62.11
76594;BME280;65482;50.240;14.302;2023-08-01T02:47:34;98367.84;;;20.01;62.05
76594;BME280;65482;50.240;14.302;2023-08-01T02:49:59;98353.97;;;20.04;62.01
76594;BME280;65482;50.240;14.302;2023-08-01T02:52:25;98350.50;;;20.03;61.67
76594;BME280;65482;50.240;14.302;2023-08-01T02:54:51;98350.19;;;20.00;61.07
76594;BME280;65482;50.240;14.302;2023-08-01T02:57:16;98351.78;;;20.01;61.36
76594;BME280;65482;50.240;14.302;2023-08-01T02:59:42;98348.06;;;20.02;61.65
76594;BME280;65482;50.240;14.302;2023-08-01T03:02:09;98348.63;;;20.04;62.39
76594;BME280;65482;50.240;14.302;2023-08-01T03:04:35;98342.72;;;20.02;62.28
76594;BME280;65482;50.240;14.302;2023-08-01T03:07:01;98341.06;;;20.01;62.45
76594;BME280;65482;50.240;14.302;2023-08-01T03:09:26;98344.81;;;20.00;62.21
76594;BME280;65482;50.240;14.302;2023-08-01T03:11:52;98345.88;;;19.99;62.45
76594;BME280;65482;50.240;14.302;2023-08-01T03:14:18;98348.50;;;19.94;62.34
76594;BME280;65482;50.240;14.302;2023-08-01T03:16:44;98354.13;;;19.97;62.13
76594;BME280;65482;50.240;14.302;2023-08-01T03:19:09;98348.00;;;19.97;62.48
76594;BME280;65482;50.240;14.302;2023-08-01T03:21:35;98344.00;;;19.99;62.94
76594;BME280;65482;50.240;14.302;2023-08-01T03:24:02;98345.06;;;19.98;62.90
76594;BME280;65482;50.240;14.302;2023-08-01T03:26:28;98342.94;;;20.00;62.63
76594;BME280;65482;50.240;14.302;2023-08-01T03:28:54;98341.31;;;19.99;62.80
76594;BME280;65482;50.240;14.302;2023-08-01T03:31:23;98340.75;;;19.97;63.05
76594;BME280;65482;50.240;14.302;2023-08-01T03:33:48;98338.91;;;19.98;63.09
76594;BME280;65482;50.240;14.302;2023-08-01T03:36:14;98333.81;;;19.96;62.89
76594;BME280;65482;50.240;14.302;2023-08-01T03:38:40;98331.13;;;19.96;63.11
76594;BME280;65482;50.240;14.302;2023-08-01T03:41:06;98334.84;;;19.95;63.24
76594;BME280;65482;50.240;14.302;2023-08-01T03:43:31;98330.00;;;19.92;63.09
76594;BME280;65482;50.240;14.302;2023-08-01T03:45:57;98318.00;;;19.95;62.83
76594;BME280;65482;50.240;14.302;2023-08-01T03:48:22;98323.34;;;19.95;63.09
76594;BME280;65482;50.240;14.302;2023-08-01T03:50:48;98310.22;;;19.93;63.29
76594;BME280;65482;50.240;14.302;2023-08-01T03:53:14;98310.22;;;19.93;63.29
76594;BME280;65482;50.240;14.302;2023-08-01T03:55:40;98310.97;;;19.89;63.77
76594;BME280;65482;50.240;14.302;2023-08-01T03:58:05;98297.09;;;19.92;63.58
76594;BME280;65482;50.240;14.302;2023-08-01T04:00:31;98291.47;;;19.93;63.42
76594;BME280;65482;50.240;14.302;2023-08-01T04:03:01;98293.59;;;19.91;63.70
76594;BME280;65482;50.240;14.302;2023-08-01T04:05:28;98289.00;;;19.86;63.69
76594;BME280;65482;50.240;14.302;2023-08-01T04:07:53;98281.53;;;19.89;63.95
76594;BME280;65482;50.240;14.302;2023-08-01T04:10:22;98292.00;;;19.90;63.51
76594;BME280;65482;50.240;14.302;2023-08-01T04:12:48;98289.06;;;19.92;63.77
76594;BME280;65482;50.240;14.302;2023-08-01T04:15:14;98276.50;;;19.92;63.88
76594;BME280;65482;50.240;14.302;2023-08-01T04:17:40;98270.63;;;19.95;63.78
76594;BME280;65482;50.240;14.302;2023-08-01T04:20:06;98267.38;;;19.93;63.99
76594;BME280;65482;50.240;14.302;2023-08-01T04:22:32;98265.81;;;19.97;63.92
76594;BME280;65482;50.240;14.302;2023-08-01T04:24:58;98263.97;;;19.98;63.67
76594;BME280;65482;50.240;14.302;2023-08-01T04:27:23;98267.47;;;19.98;63.89
76594;BME280;65482;50.240;14.302;2023-08-01T04:29:49;98261.59;;;20.01;63.90
76594;BME280;65482;50.240;14.302;2023-08-01T04:32:15;98260.22;;;19.99;63.67
76594;BME280;65482;50.240;14.302;2023-08-01T04:34:41;98253.00;;;19.99;63.64
76594;BME280;65482;50.240;14.302;2023-08-01T04:37:07;98248.47;;;20.00;63.64
76594;BME280;65482;50.240;14.302;2023-08-01T04:39:34;98245.53;;;20.01;63.34
76594;BME280;65482;50.240;14.302;2023-08-01T04:42:00;98239.94;;;20.03;62.90
76594;BME280;65482;50.240;14.302;2023-08-01T04:44:25;98243.13;;;20.00;63.27
76594;BME280;65482;50.240;14.302;2023-08-01T04:46:51;98242.28;;;19.99;63.25
76594;BME280;65482;50.240;14.302;2023-08-01T04:49:17;98242.03;;;20.01;62.26
76594;BME280;65482;50.240;14.302;2023-08-01T04:51:42;98243.16;;;20.05;62.45
76594;BME280;65482;50.240;14.302;2023-08-01T04:54:08;98241.50;;;19.99;62.03
76594;BME280;65482;50.240;14.302;2023-08-01T04:56:34;98233.91;;;19.91;62.14
76594;BME280;65482;50.240;14.302;2023-08-01T04:59:00;98226.44;;;19.93;62.22
76594;BME280;65482;50.240;14.302;2023-08-01T05:01:27;98226.50;;;19.98;62.29
76594;BME280;65482;50.240;14.302;2023-08-01T05:03:53;98224.88;;;19.97;62.13
76594;BME280;65482;50.240;14.302;2023-08-01T05:06:18;98215.25;;;19.96;62.56
76594;BME280;65482;50.240;14.302;2023-08-01T05:08:44;98214.72;;;19.99;62.68
76594;BME280;65482;50.240;14.302;2023-08-01T05:11:11;98207.22;;;19.96;61.97
76594;BME280;65482;50.240;14.302;2023-08-01T05:13:37;98208.66;;;20.09;61.77
76594;BME280;65482;50.240;14.302;2023-08-01T05:16:03;98207.34;;;20.11;61.91
76594;BME280;65482;50.240;14.302;2023-08-01T05:18:29;98199.63;;;20.15;61.62
76594;BME280;65482;50.240;14.302;2023-08-01T05:20:54;98199.88;;;20.13;62.31
76594;BME280;65482;50.240;14.302;2023-08-01T05:23:20;98192.94;;;20.17;61.60
76594;BME280;65482;50.240;14.302;2023-08-01T05:25:45;98191.28;;;20.11;61.39
76594;BME280;65482;50.240;14.302;2023-08-01T05:28:11;98189.94;;;20.09;61.65
76594;BME280;65482;50.240;14.302;2023-08-01T05:30:37;98187.78;;;20.05;61.05
76594;BME280;65482;50.240;14.302;2023-08-01T05:33:03;98192.59;;;20.03;61.35
76594;BME280;65482;50.240;14.302;2023-08-01T05:35:29;98184.34;;;20.15;61.69
76594;BME280;65482;50.240;14.302;2023-08-01T05:37:54;98183.81;;;20.13;60.95
76594;BME280;65482;50.240;14.302;2023-08-01T05:40:20;98176.16;;;20.27;61.17
76594;BME280;65482;50.240;14.302;2023-08-01T05:42:46;98168.16;;;20.32;61.11
76594;BME280;65482;50.240;14.302;2023-08-01T05:45:11;98173.09;;;20.45;60.57
76594;BME280;65482;50.240;14.302;2023-08-01T05:47:37;98171.81;;;20.53;59.75
76594;BME280;65482;50.240;14.302;2023-08-01T05:50:06;98167.00;;;20.55;59.52
76594;BME280;65482;50.240;14.302;2023-08-01T05:52:32;98166.06;;;20.72;59.17
76594;BME280;65482;50.240;14.302;2023-08-01T05:54:57;98164.75;;;20.84;59.39
76594;BME280;65482;50.240;14.302;2023-08-01T05:57:23;98168.81;;;20.87;58.96
76594;BME280;65482;50.240;14.302;2023-08-01T05:59:49;98177.41;;;20.94;58.54
76594;BME280;65482;50.240;14.302;2023-08-01T06:02:16;98173.34;;;20.81;58.68
76594;BME280;65482;50.240;14.302;2023-08-01T06:04:41;98166.16;;;20.92;58.77
76594;BME280;65482;50.240;14.302;2023-08-01T06:07:07;98161.03;;;20.85;59.13
76594;BME280;65482;50.240;14.302;2023-08-01T06:09:33;98156.78;;;20.90;59.28
76594;BME280;65482;50.240;14.302;2023-08-01T06:12:00;98154.25;;;20.73;59.25
76594;BME280;65482;50.240;14.302;2023-08-01T06:14:25;98150.03;;;20.82;59.49
76594;BME280;65482;50.240;14.302;2023-08-01T06:17:06;98151.63;;;20.78;59.45
76594;BME280;65482;50.240;14.302;2023-08-01T06:19:31;98146.88;;;20.53;60.68
76594;BME280;65482;50.240;14.302;2023-08-01T06:21:57;98142.59;;;20.52;60.74
76594;BME280;65482;50.240;14.302;2023-08-01T06:24:23;98142.59;;;20.52;61.04
76594;BME280;65482;50.240;14.302;2023-08-01T06:26:48;98138.75;;;20.37;61.49
76594;BME280;65482;50.240;14.302;2023-08-01T06:29:14;98135.72;;;20.23;62.09
76594;BME280;65482;50.240;14.302;2023-08-01T06:31:39;98126.25;;;20.11;62.69
76594;BME280;65482;50.240;14.302;2023-08-01T06:34:05;98131.97;;;20.24;62.56
76594;BME280;65482;50.240;14.302;2023-08-01T06:36:30;98132.03;;;20.35;62.37
76594;BME280;65482;50.240;14.302;2023-08-01T06:38:58;98122.69;;;20.37;61.97
76594;BME280;65482;50.240;14.302;2023-08-01T06:41:23;98111.75;;;20.44;62.07
76594;BME280;65482;50.240;14.302;2023-08-01T06:43:50;98104.75;;;20.43;61.88
76594;BME280;65482;50.240;14.302;2023-08-01T06:46:16;98105.25;;;20.30;62.12
76594;BME280;65482;50.240;14.302;2023-08-01T06:48:42;98102.25;;;20.26;62.16
76594;BME280;65482;50.240;14.302;2023-08-01T06:51:08;98102.63;;;20.40;62.25
76594;BME280;65482;50.240;14.302;2023-08-01T06:53:34;98104.22;;;20.41;61.68
76594;BME280;65482;50.240;14.302;2023-08-01T06:56:00;98100.78;;;20.45;61.79
76594;BME280;65482;50.240;14.302;2023-08-01T06:58:26;98107.97;;;20.40;62.22
76594;BME280;65482;50.240;14.302;2023-08-01T07:00:51;98107.19;;;20.44;61.92
76594;BME280;65482;50.240;14.302;2023-08-01T07:03:17;98107.19;;;20.44;62.01
76594;BME280;65482;50.240;14.302;2023-08-01T07:05:43;98102.38;;;20.41;61.75
76594;BME280;65482;50.240;14.302;2023-08-01T07:08:08;98104.75;;;20.38;61.87
76594;BME280;65482;50.240;14.302;2023-08-01T07:10:35;98107.38;;;20.33;62.15
76594;BME280;65482;50.240;14.302;2023-08-01T07:13:01;98110.66;;;20.40;61.68
76594;BME280;65482;50.240;14.302;2023-08-01T07:15:31;98111.50;;;20.51;61.60
76594;BME280;65482;50.240;14.302;2023-08-01T07:17:57;98108.28;;;20.43;61.79
76594;BME280;65482;50.240;14.302;2023-08-01T07:20:23;98115.47;;;20.43;61.93
76594;BME280;65482;50.240;14.302;2023-08-01T07:22:48;98103.66;;;20.39;61.92
76594;BME280;65482;50.240;14.302;2023-08-01T07:25:14;98106.94;;;20.46;61.61
76594;BME280;65482;50.240;14.302;2023-08-01T07:27:41;98115.56;;;20.53;61.58
76594;BME280;65482;50.240;14.302;2023-08-01T07:30:07;98104.28;;;20.51;61.88
76594;BME280;65482;50.240;14.302;2023-08-01T07:32:34;98111.75;;;20.49;61.75
76594;BME280;65482;50.240;14.302;2023-08-01T07:34:59;98111.56;;;20.56;61.88
76594;BME280;65482;50.240;14.302;2023-08-01T07:37:25;98115.91;;;20.62;61.47
76594;BME280;65482;50.240;14.302;2023-08-01T07:39:55;98111.88;;;20.64;61.88
76594;BME280;65482;50.240;14.302;2023-08-01T07:42:20;98117.03;;;20.71;61.81
76594;BME280;65482;50.240;14.302;2023-08-01T07:44:46;98124.16;;;20.55;61.97
76594;BME280;65482;50.240;14.302;2023-08-01T07:47:12;98106.94;;;20.51;62.28
76594;BME280;65482;50.240;14.302;2023-08-01T07:49:37;98115.53;;;20.48;62.59
76594;BME280;65482;50.240;14.302;2023-08-01T07:52:03;98111.28;;;20.57;62.65
76594;BME280;65482;50.240;14.302;2023-08-01T07:54:29;98114.44;;;20.44;63.15
76594;BME280;65482;50.240;14.302;2023-08-01T07:56:55;98111.25;;;20.52;62.89
76594;BME280;65482;50.240;14.302;2023-08-01T07:59:21;98110.41;;;20.46;63.34
76594;BME280;65482;50.240;14.302;2023-08-01T08:01:46;98117.94;;;20.50;63.36
76594;BME280;65482;50.240;14.302;2023-08-01T08:04:12;98112.03;;;20.48;63.17
76594;BME280;65482;50.240;14.302;2023-08-01T08:06:40;98109.13;;;20.54;63.33
76594;BME280;65482;50.240;14.302;2023-08-01T08:09:06;98115.22;;;20.39;63.17
76594;BME280;65482;50.240;14.302;2023-08-01T08:11:31;98113.63;;;20.49;63.24
76594;BME280;65482;50.240;14.302;2023-08-01T08:13:59;98119.84;;;20.54;63.76
76594;BME280;65482;50.240;14.302;2023-08-01T08:16:25;98113.72;;;20.59;63.51
76594;BME280;65482;50.240;14.302;2023-08-01T08:18:51;98116.41;;;20.59;63.44
76594;BME280;65482;50.240;14.302;2023-08-01T08:21:16;98111.34;;;20.62;63.36
76594;BME280;65482;50.240;14.302;2023-08-01T08:23:42;98121.50;;;20.60;63.60
76594;BME280;65482;50.240;14.302;2023-08-01T08:26:07;98109.25;;;20.70;63.58
76594;BME280;65482;50.240;14.302;2023-08-01T08:28:34;98117.28;;;20.75;64.06
76594;BME280;65482;50.240;14.302;2023-08-01T08:31:00;98117.06;;;20.81;63.83
76594;BME280;65482;50.240;14.302;2023-08-01T08:33:28;98110.53;;;20.67;63.75
76594;BME280;65482;50.240;14.302;2023-08-01T08:35:54;98109.28;;;20.80;63.23
76594;BME280;65482;50.240;14.302;2023-08-01T08:38:19;98102.53;;;20.72;63.64
76594;BME280;65482;50.240;14.302;2023-08-01T08:40:57;98106.63;;;20.85;63.03
76594;BME280;65482;50.240;14.302;2023-08-01T08:43:27;98105.59;;;20.91;63.12
76594;BME280;65482;50.240;14.302;2023-08-01T08:45:56;98104.75;;;20.85;63.38
76594;BME280;65482;50.240;14.302;2023-08-01T08:48:22;98106.09;;;20.88;63.78
76594;BME280;65482;50.240;14.302;2023-08-01T08:50:49;98104.50;;;20.92;62.93
76594;BME280;65482;50.240;14.302;2023-08-01T08:53:17;98110.16;;;20.96;62.95
76594;BME280;65482;50.240;14.302;2023-08-01T08:55:43;98116.84;;;20.98;62.38
76594;BME280;65482;50.240;14.302;2023-08-01T08:58:09;98108.59;;;21.10;62.20
76594;BME280;65482;50.240;14.302;2023-08-01T09:00:36;98116.63;;;21.05;62.48
76594;BME280;65482;50.240;14.302;2023-08-01T09:03:04;98113.69;;;21.12;62.04
76594;BME280;65482;50.240;14.302;2023-08-01T09:05:49;98117.22;;;21.17;61.59
76594;BME280;65482;50.240;14.302;2023-08-01T09:08:19;98121.78;;;21.32;61.53
76594;BME280;65482;50.240;14.302;2023-08-01T09:10:46;98116.72;;;21.36;61.31
76594;BME280;65482;50.240;14.302;2023-08-01T09:13:12;98123.16;;;21.35;60.89
76594;BME280;65482;50.240;14.302;2023-08-01T09:15:40;98114.06;;;21.46;61.52
76594;BME280;65482;50.240;14.302;2023-08-01T09:18:07;98113.56;;;21.64;60.32
76594;BME280;65482;50.240;14.302;2023-08-01T09:20:44;98116.00;;;21.71;59.59
76594;BME280;65482;50.240;14.302;2023-08-01T09:23:10;98121.63;;;21.70;59.63
76594;BME280;65482;50.240;14.302;2023-08-01T09:25:39;98114.91;;;21.62;59.24
76594;BME280;65482;50.240;14.302;2023-08-01T09:30:46;98104.13;;;19.88;64.98
76594;BME280;65482;50.240;14.302;2023-08-01T09:33:12;98100.00;;;19.75;65.43
76594;BME280;65482;50.240;14.302;2023-08-01T09:35:38;98114.78;;;19.83;65.89
76594;BME280;65482;50.240;14.302;2023-08-01T09:38:05;98104.06;;;19.83;66.21
76594;BME280;65482;50.240;14.302;2023-08-01T09:40:37;98105.94;;;19.82;65.49
76594;BME280;65482;50.240;14.302;2023-08-01T09:43:04;98099.91;;;19.97;65.73
76594;BME280;65482;50.240;14.302;2023-08-01T09:45:29;98105.84;;;20.04;65.66
76594;BME280;65482;50.240;14.302;2023-08-01T09:47:55;98102.25;;;20.26;64.53
76594;BME280;65482;50.240;14.302;2023-08-01T09:50:22;98094.59;;;20.40;63.92
76594;BME280;65482;50.240;14.302;2023-08-01T09:52:49;98096.66;;;20.27;64.73
76594;BME280;65482;50.240;14.302;2023-08-01T09:55:32;98100.38;;;20.26;64.61
76594;BME280;65482;50.240;14.302;2023-08-01T09:57:59;98102.16;;;20.53;64.13
76594;BME280;65482;50.240;14.302;2023-08-01T10:00:26;98099.03;;;20.61;63.74
76594;BME280;65482;50.240;14.302;2023-08-01T10:02:53;98080.59;;;20.75;63.25
76594;BME280;65482;50.240;14.302;2023-08-01T10:05:21;98080.69;;;21.01;62.80
76594;BME280;65482;50.240;14.302;2023-08-01T10:07:48;98090.38;;;21.12;61.79
76594;BME280;65482;50.240;14.302;2023-08-01T10:10:16;98088.53;;;21.28;60.75
76594;BME280;65482;50.240;14.302;2023-08-01T10:12:45;98081.84;;;21.36;60.93
76594;BME280;65482;50.240;14.302;2023-08-01T10:15:11;98080.78;;;21.42;60.14
76594;BME280;65482;50.240;14.302;2023-08-01T10:17:37;98072.25;;;21.60;59.37
76594;BME280;65482;50.240;14.302;2023-08-01T10:20:03;98063.66;;;21.63;59.71
76594;BME280;65482;50.240;14.302;2023-08-01T10:22:30;98055.34;;;21.75;59.21
76594;BME280;65482;50.240;14.302;2023-08-01T10:24:57;98053.47;;;21.60;58.68
76594;BME280;65482;50.240;14.302;2023-08-01T10:27:23;98060.44;;;21.51;59.01
76594;BME280;65482;50.240;14.302;2023-08-01T10:29:59;98048.91;;;21.51;59.45
76594;BME280;65482;50.240;14.302;2023-08-01T10:32:38;98041.66;;;21.46;59.27
76594;BME280;65482;50.240;14.302;2023-08-01T10:35:04;98040.84;;;21.45;59.35
76594;BME280;65482;50.240;14.302;2023-08-01T10:37:41;98043.25;;;21.52;59.37
76594;BME280;65482;50.240;14.302;2023-08-01T10:40:07;98021.00;;;21.47;59.32
76594;BME280;65482;50.240;14.302;2023-08-01T10:42:38;98027.13;;;21.32;59.93
76594;BME280;65482;50.240;14.302;2023-08-01T10:45:04;98022.81;;;21.31;60.43
76594;BME280;65482;50.240;14.302;2023-08-01T10:47:30;98005.97;;;21.35;60.27
76594;BME280;65482;50.240;14.302;2023-08-01T10:49:57;98008.91;;;21.64;59.27
76594;BME280;65482;50.240;14.302;2023-08-01T10:52:26;98015.63;;;21.93;58.27
76594;BME280;65482;50.240;14.302;2023-08-01T10:55:02;98020.66;;;22.20;58.07
76594;BME280;65482;50.240;14.302;2023-08-01T10:57:30;98014.47;;;22.30;57.83
76594;BME280;65482;50.240;14.302;2023-08-01T10:59:57;98014.22;;;22.36;56.33
76594;BME280;65482;50.240;14.302;2023-08-01T11:02:27;97988.63;;;22.44;55.73
76594;BME280;65482;50.240;14.302;2023-08-01T11:05:00;97993.47;;;22.47;56.04
76594;BME280;65482;50.240;14.302;2023-08-01T11:07:27;97997.75;;;22.48;55.02
76594;BME280;65482;50.240;14.302;2023-08-01T11:12:37;98016.22;;;22.65;55.04
76594;BME280;65482;50.240;14.302;2023-08-01T11:15:04;97997.47;;;22.50;54.98
76594;BME280;65482;50.240;14.302;2023-08-01T11:17:32;98004.44;;;22.61;54.78
76594;BME280;65482;50.240;14.302;2023-08-01T11:20:17;97989.34;;;22.65;53.89
76594;BME280;65482;50.240;14.302;2023-08-01T11:23:03;98003.31;;;22.72;54.18
76594;BME280;65482;50.240;14.302;2023-08-01T11:25:43;97984.72;;;22.76;54.31
76594;BME280;65482;50.240;14.302;2023-08-01T11:28:13;97990.78;;;22.47;54.06
76594;BME280;65482;50.240;14.302;2023-08-01T11:30:39;97999.31;;;22.64;53.80
76594;BME280;65482;50.240;14.302;2023-08-01T11:35:41;98013.00;;;22.68;52.57
76594;BME280;65482;50.240;14.302;2023-08-01T11:38:08;98015.44;;;22.64;52.00
76594;BME280;65482;50.240;14.302;2023-08-01T11:40:35;98006.47;;;22.79;52.13
76594;BME280;65482;50.240;14.302;2023-08-01T11:43:01;98006.16;;;22.91;51.21
76594;BME280;65482;50.240;14.302;2023-08-01T11:45:27;98003.34;;;23.12;51.17
76594;BME280;65482;50.240;14.302;2023-08-01T11:47:53;98003.19;;;23.37;49.62
76594;BME280;65482;50.240;14.302;2023-08-01T11:50:23;98001.94;;;23.59;49.07
76594;BME280;65482;50.240;14.302;2023-08-01T11:52:49;98002.88;;;23.73;48.69
76594;BME280;65482;50.240;14.302;2023-08-01T11:55:26;97993.41;;;23.81;48.87
76594;BME280;65482;50.240;14.302;2023-08-01T11:57:56;97994.25;;;23.81;47.75
76594;BME280;65482;50.240;14.302;2023-08-01T12:00:24;98011.50;;;24.05;48.96
76594;BME280;65482;50.240;14.302;2023-08-01T12:02:50;97996.78;;;24.21;48.04
76594;BME280;65482;50.240;14.302;2023-08-01T12:05:23;97993.88;;;24.41;47.42
76594;BME280;65482;50.240;14.302;2023-08-01T12:07:49;98003.91;;;24.60;47.21
76594;BME280;65482;50.240;14.302;2023-08-01T12:10:15;98017.38;;;24.60;47.24
76594;BME280;65482;50.240;14.302;2023-08-01T12:12:46;98026.25;;;24.36;46.24
76594;BME280;65482;50.240;14.302;2023-08-01T12:15:15;98025.56;;;24.26;46.67
76594;BME280;65482;50.240;14.302;2023-08-01T12:17:41;98030.31;;;24.34;47.26
76594;BME280;65482;50.240;14.302;2023-08-01T12:20:07;98041.84;;;24.39;47.47
76594;BME280;65482;50.240;14.302;2023-08-01T12:22:33;98038.28;;;24.44;46.14
76594;BME280;65482;50.240;14.302;2023-08-01T12:24:59;98028.38;;;24.39;46.48
76594;BME280;65482;50.240;14.302;2023-08-01T12:27:25;98026.19;;;24.41;46.54
76594;BME280;65482;50.240;14.302;2023-08-01T12:29:50;98020.59;;;24.38;46.17
76594;BME280;65482;50.240;14.302;2023-08-01T12:32:17;98021.78;;;24.27;46.60
76594;BME280;65482;50.240;14.302;2023-08-01T12:34:43;98026.00;;;24.33;46.61
76594;BME280;65482;50.240;14.302;2023-08-01T12:37:09;98015.31;;;24.28;46.29
76594;BME280;65482;50.240;14.302;2023-08-01T12:39:34;98026.00;;;24.33;47.02
76594;BME280;65482;50.240;14.302;2023-08-01T12:42:00;98027.28;;;24.40;47.18
76594;BME280;65482;50.240;14.302;2023-08-01T12:44:26;98031.28;;;24.43;47.54
76594;BME280;65482;50.240;14.302;2023-08-01T12:46:51;98046.72;;;24.37;46.03
76594;BME280;65482;50.240;14.302;2023-08-01T12:49:18;98027.75;;;24.24;46.70
76594;BME280;65482;50.240;14.302;2023-08-01T12:51:45;98029.22;;;24.35;46.95
76594;BME280;65482;50.240;14.302;2023-08-01T12:54:10;98035.59;;;24.20;46.71
76594;BME280;65482;50.240;14.302;2023-08-01T12:56:37;98038.63;;;24.13;47.17